sensor_id;sensor_type;location;lat;lon;timestamp;P1;durP1;ratioP1;P2;durP2;ratioP2
32333;SDS011;18810;53.040;8.850;2022-10-29T00:00:44;19.42;;;10.27;;
32333;SDS011;18810;53.040;8.850;2022-10-29T00:03:10;27.10;;;12.32;;
32333;SDS011;18810;53.040;8.850;2022-10-29T00:05:36;23.13;;;11.27;;
32333;SDS011;18810;53.040;8.850;2022-10-29T00:08:02;22.38;;;11.80;;
32333;SDS011;18810;53.040;8.850;2022-10-29T00:10:28;31.08;;;11.60;;
32333;SDS011;18810;53.040;8.850;2022-10-29T00:12:54;22.85;;;11.55;;
32333;SDS011;18810;53.040;8.850;2022-10-29T00:15:20;24.63;;;13.02;;
32333;SDS011;18810;53.040;8.850;2022-10-29T00:17:46;31.83;;;13.43;;
32333;SDS011;18810;53.040;8.850;2022-10-29T00:20:12;27.25;;;12.50;;
32333;SDS011;18810;53.040;8.850;2022-10-29T00:22:38;29.00;;;12.45;;
32333;SDS011;18810;53.040;8.850;2022-10-29T00:25:04;26.48;;;11.90;;
32333;SDS011;18810;53.040;8.850;2022-10-29T00:27:30;24.48;;;12.50;;
32333;SDS011;18810;53.040;8.850;2022-10-29T00:29:56;22.48;;;12.07;;
32333;SDS011;18810;53.040;8.850;2022-10-29T00:32:22;22.25;;;11.23;;
32333;SDS011;18810;53.040;8.850;2022-10-29T00:34:48;25.45;;;11.98;;
32333;SDS011;18810;53.040;8.850;2022-10-29T00:37:14;29.50;;;11.95;;
32333;SDS011;18810;53.040;8.850;2022-10-29T00:39:40;27.35;;;11.32;;
32333;SDS011;18810;53.040;8.850;2022-10-29T00:42:11;20.85;;;10.90;;
32333;SDS011;18810;53.040;8.850;2022-10-29T00:44:39;24.65;;;11.73;;
32333;SDS011;18810;53.040;8.850;2022-10-29T00:47:17;29.02;;;11.82;;
32333;SDS011;18810;53.040;8.850;2022-10-29T00:49:48;23.67;;;11.07;;
32333;SDS011;18810;53.040;8.850;2022-10-29T00:52:16;21.70;;;12.38;;
32333;SDS011;18810;53.040;8.850;2022-10-29T00:54:46;28.63;;;11.87;;
32333;SDS011;18810;53.040;8.850;2022-10-29T00:57:19;27.10;;;12.10;;
32333;SDS011;18810;53.040;8.850;2022-10-29T00:59:52;27.48;;;11.90;;
32333;SDS011;18810;53.040;8.850;2022-10-29T01:02:18;28.58;;;12.93;;
32333;SDS011;18810;53.040;8.850;2022-10-29T01:04:45;30.85;;;13.18;;
32333;SDS011;18810;53.040;8.850;2022-10-29T01:07:11;25.02;;;12.00;;
32333;SDS011;18810;53.040;8.850;2022-10-29T01:09:36;28.33;;;12.95;;
32333;SDS011;18810;53.040;8.850;2022-10-29T01:15:03;22.00;;;11.63;;
32333;SDS011;18810;53.040;8.850;2022-10-29T01:26:15;28.90;;;11.82;;
32333;SDS011;18810;53.040;8.850;2022-10-29T01:34:21;20.80;;;10.95;;
32333;SDS011;18810;53.040;8.850;2022-10-29T01:37:19;23.55;;;10.75;;
32333;SDS011;18810;53.040;8.850;2022-10-29T01:42:38;23.67;;;10.77;;
32333;SDS011;18810;53.040;8.850;2022-10-29T01:48:01;26.48;;;11.68;;
32333;SDS011;18810;53.040;8.850;2022-10-29T01:50:32;25.88;;;11.15;;
32333;SDS011;18810;53.040;8.850;2022-10-29T01:52:59;26.17;;;11.68;;
32333;SDS011;18810;53.040;8.850;2022-10-29T01:55:29;23.63;;;11.15;;
32333;SDS011;18810;53.040;8.850;2022-10-29T01:57:59;28.65;;;12.48;;
32333;SDS011;18810;53.040;8.850;2022-10-29T02:00:25;29.45;;;13.40;;
32333;SDS011;18810;53.040;8.850;2022-10-29T02:08:28;22.55;;;12.05;;
32333;SDS011;18810;53.040;8.850;2022-10-29T02:11:14;25.90;;;11.55;;
32333;SDS011;18810;53.040;8.850;2022-10-29T02:13:56;26.98;;;12.05;;
32333;SDS011;18810;53.040;8.850;2022-10-29T02:16:29;29.30;;;13.27;;
32333;SDS011;18810;53.040;8.850;2022-10-29T02:18:57;24.42;;;11.98;;
32333;SDS011;18810;53.040;8.850;2022-10-29T02:21:24;27.00;;;12.43;;
32333;SDS011;18810;53.040;8.850;2022-10-29T02:23:50;24.23;;;13.40;;
32333;SDS011;18810;53.040;8.850;2022-10-29T02:26:15;24.05;;;13.15;;
32333;SDS011;18810;53.040;8.850;2022-10-29T02:28:41;26.40;;;13.73;;
32333;SDS011;18810;53.040;8.850;2022-10-29T02:31:07;29.20;;;13.90;;
32333;SDS011;18810;53.040;8.850;2022-10-29T02:33:33;29.13;;;13.10;;
32333;SDS011;18810;53.040;8.850;2022-10-29T02:35:59;24.48;;;13.50;;
32333;SDS011;18810;53.040;8.850;2022-10-29T02:38:25;24.60;;;13.25;;
32333;SDS011;18810;53.040;8.850;2022-10-29T02:40:51;28.27;;;12.07;;
32333;SDS011;18810;53.040;8.850;2022-10-29T02:43:17;27.83;;;14.02;;
32333;SDS011;18810;53.040;8.850;2022-10-29T02:45:43;33.00;;;13.93;;
32333;SDS011;18810;53.040;8.850;2022-10-29T02:48:09;20.55;;;12.93;;
32333;SDS011;18810;53.040;8.850;2022-10-29T02:50:35;33.35;;;14.82;;
32333;SDS011;18810;53.040;8.850;2022-10-29T02:53:01;30.88;;;13.82;;
32333;SDS011;18810;53.040;8.850;2022-10-29T02:55:27;30.35;;;14.43;;
32333;SDS011;18810;53.040;8.850;2022-10-29T02:57:53;34.55;;;15.27;;
32333;SDS011;18810;53.040;8.850;2022-10-29T03:00:19;28.20;;;14.63;;
32333;SDS011;18810;53.040;8.850;2022-10-29T03:02:44;30.98;;;14.88;;
32333;SDS011;18810;53.040;8.850;2022-10-29T03:05:10;35.40;;;15.10;;
32333;SDS011;18810;53.040;8.850;2022-10-29T03:07:37;26.25;;;13.18;;
32333;SDS011;18810;53.040;8.850;2022-10-29T03:10:03;27.38;;;13.05;;
32333;SDS011;18810;53.040;8.850;2022-10-29T03:12:30;27.38;;;12.98;;
32333;SDS011;18810;53.040;8.850;2022-10-29T03:14:56;32.72;;;14.68;;
32333;SDS011;18810;53.040;8.850;2022-10-29T03:17:22;31.55;;;13.70;;
32333;SDS011;18810;53.040;8.850;2022-10-29T03:19:47;27.27;;;14.25;;
32333;SDS011;18810;53.040;8.850;2022-10-29T03:22:13;27.42;;;14.13;;
32333;SDS011;18810;53.040;8.850;2022-10-29T03:24:39;29.95;;;15.48;;
32333;SDS011;18810;53.040;8.850;2022-10-29T03:27:05;31.63;;;15.70;;
32333;SDS011;18810;53.040;8.850;2022-10-29T03:29:31;27.08;;;15.95;;
32333;SDS011;18810;53.040;8.850;2022-10-29T03:31:57;27.63;;;15.43;;
32333;SDS011;18810;53.040;8.850;2022-10-29T03:34:23;30.80;;;15.68;;
32333;SDS011;18810;53.040;8.850;2022-10-29T03:36:49;32.88;;;16.15;;
32333;SDS011;18810;53.040;8.850;2022-10-29T03:39:15;30.40;;;15.23;;
32333;SDS011;18810;53.040;8.850;2022-10-29T03:41:41;29.17;;;14.55;;
32333;SDS011;18810;53.040;8.850;2022-10-29T03:44:06;34.55;;;17.13;;
32333;SDS011;18810;53.040;8.850;2022-10-29T03:46:32;31.10;;;16.75;;
32333;SDS011;18810;53.040;8.850;2022-10-29T03:48:58;32.00;;;15.77;;
32333;SDS011;18810;53.040;8.850;2022-10-29T03:51:24;30.83;;;16.13;;
32333;SDS011;18810;53.040;8.850;2022-10-29T03:53:50;33.55;;;16.98;;
32333;SDS011;18810;53.040;8.850;2022-10-29T03:56:16;28.02;;;15.93;;
32333;SDS011;18810;53.040;8.850;2022-10-29T03:58:42;33.60;;;16.15;;
32333;SDS011;18810;53.040;8.850;2022-10-29T04:01:08;36.80;;;17.23;;
32333;SDS011;18810;53.040;8.850;2022-10-29T04:03:34;31.90;;;17.90;;
32333;SDS011;18810;53.040;8.850;2022-10-29T04:06:07;38.55;;;17.30;;
32333;SDS011;18810;53.040;8.850;2022-10-29T04:08:35;30.33;;;16.67;;
32333;SDS011;18810;53.040;8.850;2022-10-29T04:11:02;37.47;;;17.38;;
32333;SDS011;18810;53.040;8.850;2022-10-29T04:13:28;32.97;;;17.35;;
32333;SDS011;18810;53.040;8.850;2022-10-29T04:15:54;33.70;;;18.23;;
32333;SDS011;18810;53.040;8.850;2022-10-29T04:18:21;40.17;;;19.05;;
32333;SDS011;18810;53.040;8.850;2022-10-29T04:20:47;33.47;;;16.48;;
32333;SDS011;18810;53.040;8.850;2022-10-29T04:23:13;37.33;;;17.42;;
32333;SDS011;18810;53.040;8.850;2022-10-29T04:25:39;37.13;;;17.17;;
32333;SDS011;18810;53.040;8.850;2022-10-29T04:28:05;31.83;;;17.23;;
32333;SDS011;18810;53.040;8.850;2022-10-29T04:30:31;30.15;;;17.42;;
32333;SDS011;18810;53.040;8.850;2022-10-29T04:32:57;31.40;;;17.42;;
32333;SDS011;18810;53.040;8.850;2022-10-29T04:35:27;32.92;;;17.02;;
32333;SDS011;18810;53.040;8.850;2022-10-29T04:37:53;31.98;;;17.23;;
32333;SDS011;18810;53.040;8.850;2022-10-29T04:40:22;33.05;;;17.77;;
32333;SDS011;18810;53.040;8.850;2022-10-29T04:42:50;29.08;;;16.95;;
32333;SDS011;18810;53.040;8.850;2022-10-29T04:45:17;33.33;;;17.13;;
32333;SDS011;18810;53.040;8.850;2022-10-29T04:47:42;34.72;;;17.20;;
32333;SDS011;18810;53.040;8.850;2022-10-29T04:50:09;37.92;;;16.88;;
32333;SDS011;18810;53.040;8.850;2022-10-29T04:52:35;32.95;;;17.02;;
32333;SDS011;18810;53.040;8.850;2022-10-29T04:55:01;36.20;;;17.67;;
32333;SDS011;18810;53.040;8.850;2022-10-29T04:57:26;35.80;;;17.75;;
32333;SDS011;18810;53.040;8.850;2022-10-29T04:59:52;28.17;;;15.82;;
32333;SDS011;18810;53.040;8.850;2022-10-29T05:02:18;32.53;;;16.70;;
32333;SDS011;18810;53.040;8.850;2022-10-29T05:04:44;27.92;;;15.88;;
32333;SDS011;18810;53.040;8.850;2022-10-29T05:07:10;29.83;;;15.95;;
32333;SDS011;18810;53.040;8.850;2022-10-29T05:09:36;32.75;;;15.88;;
32333;SDS011;18810;53.040;8.850;2022-10-29T05:12:02;29.48;;;16.15;;
32333;SDS011;18810;53.040;8.850;2022-10-29T05:14:28;26.40;;;15.85;;
32333;SDS011;18810;53.040;8.850;2022-10-29T05:16:54;36.20;;;16.92;;
32333;SDS011;18810;53.040;8.850;2022-10-29T05:19:20;33.53;;;18.48;;
32333;SDS011;18810;53.040;8.850;2022-10-29T05:21:46;37.20;;;18.73;;
32333;SDS011;18810;53.040;8.850;2022-10-29T05:24:12;40.92;;;21.30;;
32333;SDS011;18810;53.040;8.850;2022-10-29T05:26:38;33.28;;;19.45;;
32333;SDS011;18810;53.040;8.850;2022-10-29T05:29:03;44.97;;;22.83;;
32333;SDS011;18810;53.040;8.850;2022-10-29T05:31:29;41.30;;;21.10;;
32333;SDS011;18810;53.040;8.850;2022-10-29T05:33:55;41.65;;;21.25;;
32333;SDS011;18810;53.040;8.850;2022-10-29T05:36:21;38.53;;;21.95;;
32333;SDS011;18810;53.040;8.850;2022-10-29T05:38:47;38.25;;;20.73;;
32333;SDS011;18810;53.040;8.850;2022-10-29T05:41:12;37.30;;;20.20;;
32333;SDS011;18810;53.040;8.850;2022-10-29T05:43:38;36.33;;;18.98;;
32333;SDS011;18810;53.040;8.850;2022-10-29T05:46:04;36.33;;;18.98;;
32333;SDS011;18810;53.040;8.850;2022-10-29T05:48:30;41.75;;;20.90;;
32333;SDS011;18810;53.040;8.850;2022-10-29T05:50:56;33.42;;;18.83;;
32333;SDS011;18810;53.040;8.850;2022-10-29T05:53:22;40.75;;;19.88;;
32333;SDS011;18810;53.040;8.850;2022-10-29T05:55:49;34.88;;;19.20;;
32333;SDS011;18810;53.040;8.850;2022-10-29T05:58:15;33.80;;;19.70;;
32333;SDS011;18810;53.040;8.850;2022-10-29T06:00:42;34.50;;;19.23;;
32333;SDS011;18810;53.040;8.850;2022-10-29T06:03:12;33.67;;;19.17;;
32333;SDS011;18810;53.040;8.850;2022-10-29T06:05:40;32.80;;;18.95;;
32333;SDS011;18810;53.040;8.850;2022-10-29T06:08:06;30.73;;;19.17;;
32333;SDS011;18810;53.040;8.850;2022-10-29T06:10:32;39.90;;;20.17;;
32333;SDS011;18810;53.040;8.850;2022-10-29T06:12:58;34.33;;;19.05;;
32333;SDS011;18810;53.040;8.850;2022-10-29T06:15:24;32.35;;;18.30;;
32333;SDS011;18810;53.040;8.850;2022-10-29T06:17:50;33.65;;;19.13;;
32333;SDS011;18810;53.040;8.850;2022-10-29T06:20:17;40.05;;;19.88;;
32333;SDS011;18810;53.040;8.850;2022-10-29T06:22:44;36.70;;;20.27;;
32333;SDS011;18810;53.040;8.850;2022-10-29T06:25:10;34.50;;;20.10;;
32333;SDS011;18810;53.040;8.850;2022-10-29T06:27:36;38.53;;;21.33;;
32333;SDS011;18810;53.040;8.850;2022-10-29T06:30:03;40.35;;;21.13;;
32333;SDS011;18810;53.040;8.850;2022-10-29T06:32:29;37.75;;;21.17;;
32333;SDS011;18810;53.040;8.850;2022-10-29T06:34:55;38.45;;;20.73;;
32333;SDS011;18810;53.040;8.850;2022-10-29T06:37:21;37.50;;;21.25;;
32333;SDS011;18810;53.040;8.850;2022-10-29T06:39:47;38.08;;;20.55;;
32333;SDS011;18810;53.040;8.850;2022-10-29T06:42:13;40.75;;;20.08;;
32333;SDS011;18810;53.040;8.850;2022-10-29T06:44:39;44.42;;;22.48;;
32333;SDS011;18810;53.040;8.850;2022-10-29T06:47:05;42.38;;;20.80;;
32333;SDS011;18810;53.040;8.850;2022-10-29T06:49:31;45.70;;;21.70;;
32333;SDS011;18810;53.040;8.850;2022-10-29T06:51:57;41.28;;;21.23;;
32333;SDS011;18810;53.040;8.850;2022-10-29T06:54:23;39.92;;;22.15;;
32333;SDS011;18810;53.040;8.850;2022-10-29T06:56:49;37.88;;;20.52;;
32333;SDS011;18810;53.040;8.850;2022-10-29T06:59:15;37.20;;;19.63;;
32333;SDS011;18810;53.040;8.850;2022-10-29T07:01:42;37.40;;;20.17;;
32333;SDS011;18810;53.040;8.850;2022-10-29T07:04:10;37.65;;;18.85;;
32333;SDS011;18810;53.040;8.850;2022-10-29T07:06:41;29.02;;;17.73;;
32333;SDS011;18810;53.040;8.850;2022-10-29T07:09:10;35.28;;;18.33;;
32333;SDS011;18810;53.040;8.850;2022-10-29T07:11:36;31.95;;;18.83;;
32333;SDS011;18810;53.040;8.850;2022-10-29T07:14:02;30.70;;;17.67;;
32333;SDS011;18810;53.040;8.850;2022-10-29T07:16:29;30.55;;;17.88;;
32333;SDS011;18810;53.040;8.850;2022-10-29T07:18:55;33.33;;;18.77;;
32333;SDS011;18810;53.040;8.850;2022-10-29T07:21:21;34.47;;;17.88;;
32333;SDS011;18810;53.040;8.850;2022-10-29T07:23:47;29.30;;;17.67;;
32333;SDS011;18810;53.040;8.850;2022-10-29T07:26:13;35.30;;;18.33;;
32333;SDS011;18810;53.040;8.850;2022-10-29T07:28:39;30.38;;;18.10;;
32333;SDS011;18810;53.040;8.850;2022-10-29T07:31:05;33.72;;;18.38;;
32333;SDS011;18810;53.040;8.850;2022-10-29T07:33:32;32.00;;;18.20;;
32333;SDS011;18810;53.040;8.850;2022-10-29T07:35:58;33.75;;;18.42;;
32333;SDS011;18810;53.040;8.850;2022-10-29T07:38:24;33.42;;;18.27;;
32333;SDS011;18810;53.040;8.850;2022-10-29T07:40:50;32.25;;;17.35;;
32333;SDS011;18810;53.040;8.850;2022-10-29T07:43:17;27.55;;;16.80;;
32333;SDS011;18810;53.040;8.850;2022-10-29T07:45:44;25.77;;;16.90;;
32333;SDS011;18810;53.040;8.850;2022-10-29T07:48:13;26.63;;;15.50;;
32333;SDS011;18810;53.040;8.850;2022-10-29T07:50:39;34.88;;;18.25;;
32333;SDS011;18810;53.040;8.850;2022-10-29T07:53:06;29.08;;;15.57;;
32333;SDS011;18810;53.040;8.850;2022-10-29T07:55:32;26.65;;;16.38;;
32333;SDS011;18810;53.040;8.850;2022-10-29T07:57:58;24.13;;;15.73;;
32333;SDS011;18810;53.040;8.850;2022-10-29T08:00:27;37.53;;;15.43;;
32333;SDS011;18810;53.040;8.850;2022-10-29T08:02:57;26.35;;;14.90;;
32333;SDS011;18810;53.040;8.850;2022-10-29T08:05:23;21.80;;;13.35;;
32333;SDS011;18810;53.040;8.850;2022-10-29T08:07:52;20.95;;;12.45;;
32333;SDS011;18810;53.040;8.850;2022-10-29T08:10:22;19.02;;;12.73;;
32333;SDS011;18810;53.040;8.850;2022-10-29T08:12:59;20.88;;;12.88;;
32333;SDS011;18810;53.040;8.850;2022-10-29T08:15:26;22.65;;;12.30;;
32333;SDS011;18810;53.040;8.850;2022-10-29T08:17:53;21.00;;;12.32;;
32333;SDS011;18810;53.040;8.850;2022-10-29T08:20:19;19.60;;;10.80;;
32333;SDS011;18810;53.040;8.850;2022-10-29T08:22:46;20.98;;;12.05;;
32333;SDS011;18810;53.040;8.850;2022-10-29T08:25:12;19.73;;;10.63;;
32333;SDS011;18810;53.040;8.850;2022-10-29T08:27:38;18.55;;;10.90;;
32333;SDS011;18810;53.040;8.850;2022-10-29T08:30:05;24.80;;;12.88;;
32333;SDS011;18810;53.040;8.850;2022-10-29T08:32:32;24.38;;;12.45;;
32333;SDS011;18810;53.040;8.850;2022-10-29T08:34:58;18.75;;;11.75;;
32333;SDS011;18810;53.040;8.850;2022-10-29T08:37:24;18.52;;;11.27;;
32333;SDS011;18810;53.040;8.850;2022-10-29T08:39:50;18.67;;;11.25;;
32333;SDS011;18810;53.040;8.850;2022-10-29T08:48:24;19.52;;;11.88;;
32333;SDS011;18810;53.040;8.850;2022-10-29T08:50:46;23.92;;;12.32;;
32333;SDS011;18810;53.040;8.850;2022-10-29T08:53:45;18.98;;;12.48;;
32333;SDS011;18810;53.040;8.850;2022-10-29T08:56:22;19.50;;;12.38;;
32333;SDS011;18810;53.040;8.850;2022-10-29T09:01:25;24.70;;;13.50;;
32333;SDS011;18810;53.040;8.850;2022-10-29T09:03:51;24.90;;;14.13;;
32333;SDS011;18810;53.040;8.850;2022-10-29T09:06:25;23.63;;;13.82;;
32333;SDS011;18810;53.040;8.850;2022-10-29T09:17:30;23.63;;;13.55;;
32333;SDS011;18810;53.040;8.850;2022-10-29T09:23:17;25.80;;;15.95;;
32333;SDS011;18810;53.040;8.850;2022-10-29T09:26:03;25.85;;;15.82;;
32333;SDS011;18810;53.040;8.850;2022-10-29T09:31:46;24.90;;;16.23;;
32333;SDS011;18810;53.040;8.850;2022-10-29T09:34:21;25.33;;;14.80;;
32333;SDS011;18810;53.040;8.850;2022-10-29T09:37:53;27.13;;;16.73;;
32333;SDS011;18810;53.040;8.850;2022-10-29T09:40:06;27.20;;;16.13;;
32333;SDS011;18810;53.040;8.850;2022-10-29T09:42:53;24.90;;;15.18;;
32333;SDS011;18810;53.040;8.850;2022-10-29T09:45:39;30.15;;;17.30;;
32333;SDS011;18810;53.040;8.850;2022-10-29T09:48:20;26.77;;;17.13;;
32333;SDS011;18810;53.040;8.850;2022-10-29T09:53:24;26.30;;;16.77;;
32333;SDS011;18810;53.040;8.850;2022-10-29T09:55:50;26.00;;;16.90;;
32333;SDS011;18810;53.040;8.850;2022-10-29T09:58:21;32.35;;;18.27;;
32333;SDS011;18810;53.040;8.850;2022-10-29T10:00:49;29.38;;;17.25;;
32333;SDS011;18810;53.040;8.850;2022-10-29T10:03:17;27.02;;;17.23;;
32333;SDS011;18810;53.040;8.850;2022-10-29T10:06:07;30.90;;;17.58;;
32333;SDS011;18810;53.040;8.850;2022-10-29T10:08:34;28.45;;;15.98;;
32333;SDS011;18810;53.040;8.850;2022-10-29T10:11:19;26.33;;;15.75;;
32333;SDS011;18810;53.040;8.850;2022-10-29T10:13:54;24.70;;;15.07;;
32333;SDS011;18810;53.040;8.850;2022-10-29T10:16:23;25.52;;;15.80;;
32333;SDS011;18810;53.040;8.850;2022-10-29T10:18:51;26.33;;;14.68;;
32333;SDS011;18810;53.040;8.850;2022-10-29T10:21:26;22.45;;;14.88;;
32333;SDS011;18810;53.040;8.850;2022-10-29T10:23:54;22.20;;;15.65;;
32333;SDS011;18810;53.040;8.850;2022-10-29T10:26:35;25.92;;;16.02;;
32333;SDS011;18810;53.040;8.850;2022-10-29T10:29:14;29.55;;;15.48;;
32333;SDS011;18810;53.040;8.850;2022-10-29T10:31:42;24.65;;;15.55;;
32333;SDS011;18810;53.040;8.850;2022-10-29T10:34:24;26.02;;;15.98;;
32333;SDS011;18810;53.040;8.850;2022-10-29T10:42:15;24.52;;;16.67;;
32333;SDS011;18810;53.040;8.850;2022-10-29T10:44:50;23.35;;;15.27;;
32333;SDS011;18810;53.040;8.850;2022-10-29T10:47:28;29.63;;;14.82;;
32333;SDS011;18810;53.040;8.850;2022-10-29T10:50:14;23.42;;;15.35;;
32333;SDS011;18810;53.040;8.850;2022-10-29T10:52:58;25.73;;;15.57;;
32333;SDS011;18810;53.040;8.850;2022-10-29T10:55:31;21.42;;;15.27;;
32333;SDS011;18810;53.040;8.850;2022-10-29T11:00:24;24.38;;;15.23;;
32333;SDS011;18810;53.040;8.850;2022-10-29T11:02:59;21.92;;;14.30;;
32333;SDS011;18810;53.040;8.850;2022-10-29T11:08:33;27.92;;;14.30;;
32333;SDS011;18810;53.040;8.850;2022-10-29T11:11:07;23.42;;;13.05;;
32333;SDS011;18810;53.040;8.850;2022-10-29T11:13:38;24.73;;;14.00;;
32333;SDS011;18810;53.040;8.850;2022-10-29T11:21:36;18.90;;;12.20;;
32333;SDS011;18810;53.040;8.850;2022-10-29T11:25:13;22.17;;;13.02;;
32333;SDS011;18810;53.040;8.850;2022-10-29T11:29:59;19.13;;;12.10;;
32333;SDS011;18810;53.040;8.850;2022-10-29T11:32:39;22.98;;;13.65;;
32333;SDS011;18810;53.040;8.850;2022-10-29T11:35:12;25.42;;;13.60;;
32333;SDS011;18810;53.040;8.850;2022-10-29T11:37:49;19.70;;;13.43;;
32333;SDS011;18810;53.040;8.850;2022-10-29T11:40:35;23.63;;;13.35;;
32333;SDS011;18810;53.040;8.850;2022-10-29T11:43:08;26.33;;;14.85;;
32333;SDS011;18810;53.040;8.850;2022-10-29T11:45:52;24.52;;;13.80;;
32333;SDS011;18810;53.040;8.850;2022-10-29T11:50:54;31.02;;;14.25;;
32333;SDS011;18810;53.040;8.850;2022-10-29T11:59:04;25.77;;;14.25;;
32333;SDS011;18810;53.040;8.850;2022-10-29T12:04:32;23.95;;;14.38;;
32333;SDS011;18810;53.040;8.850;2022-10-29T12:07:13;26.15;;;15.18;;
32333;SDS011;18810;53.040;8.850;2022-10-29T12:10:03;24.10;;;13.68;;
32333;SDS011;18810;53.040;8.850;2022-10-29T12:15:39;23.95;;;13.32;;
32333;SDS011;18810;53.040;8.850;2022-10-29T12:18:21;23.20;;;14.10;;
32333;SDS011;18810;53.040;8.850;2022-10-29T12:26:54;23.65;;;14.02;;
32333;SDS011;18810;53.040;8.850;2022-10-29T12:29:29;25.20;;;13.38;;
32333;SDS011;18810;53.040;8.850;2022-10-29T12:32:21;24.60;;;13.48;;
32333;SDS011;18810;53.040;8.850;2022-10-29T12:37:58;25.70;;;13.63;;
32333;SDS011;18810;53.040;8.850;2022-10-29T12:40:37;22.48;;;13.25;;
32333;SDS011;18810;53.040;8.850;2022-10-29T12:43:06;30.80;;;13.50;;
32333;SDS011;18810;53.040;8.850;2022-10-29T12:56:30;22.70;;;13.48;;
32333;SDS011;18810;53.040;8.850;2022-10-29T12:58:57;20.55;;;13.52;;
32333;SDS011;18810;53.040;8.850;2022-10-29T13:01:49;21.65;;;14.35;;
32333;SDS011;18810;53.040;8.850;2022-10-29T13:04:31;22.73;;;14.15;;
32333;SDS011;18810;53.040;8.850;2022-10-29T13:07:02;28.23;;;14.57;;
32333;SDS011;18810;53.040;8.850;2022-10-29T13:09:30;27.08;;;14.77;;
32333;SDS011;18810;53.040;8.850;2022-10-29T13:12:04;26.42;;;15.13;;
32333;SDS011;18810;53.040;8.850;2022-10-29T13:14:36;24.02;;;15.18;;
32333;SDS011;18810;53.040;8.850;2022-10-29T13:17:29;28.77;;;15.70;;
32333;SDS011;18810;53.040;8.850;2022-10-29T13:19:58;34.25;;;15.52;;
32333;SDS011;18810;53.040;8.850;2022-10-29T13:25:46;29.33;;;15.38;;
32333;SDS011;18810;53.040;8.850;2022-10-29T13:30:39;30.40;;;15.45;;
32333;SDS011;18810;53.040;8.850;2022-10-29T13:38:38;31.85;;;14.75;;
32333;SDS011;18810;53.040;8.850;2022-10-29T13:41:15;29.42;;;15.25;;
32333;SDS011;18810;53.040;8.850;2022-10-29T13:43:42;32.72;;;15.95;;
32333;SDS011;18810;53.040;8.850;2022-10-29T13:48:43;39.58;;;16.38;;
32333;SDS011;18810;53.040;8.850;2022-10-29T13:51:12;33.35;;;15.60;;
32333;SDS011;18810;53.040;8.850;2022-10-29T13:56:10;30.50;;;15.02;;
32333;SDS011;18810;53.040;8.850;2022-10-29T13:58:44;29.05;;;15.98;;
32333;SDS011;18810;53.040;8.850;2022-10-29T14:01:13;27.92;;;15.35;;
32333;SDS011;18810;53.040;8.850;2022-10-29T14:03:47;27.10;;;16.10;;
32333;SDS011;18810;53.040;8.850;2022-10-29T14:06:22;34.83;;;15.93;;
32333;SDS011;18810;53.040;8.850;2022-10-29T14:08:54;27.33;;;15.27;;
32333;SDS011;18810;53.040;8.850;2022-10-29T14:11:54;28.40;;;15.60;;
32333;SDS011;18810;53.040;8.850;2022-10-29T14:14:28;27.33;;;15.00;;
32333;SDS011;18810;53.040;8.850;2022-10-29T14:17:15;25.65;;;15.07;;
32333;SDS011;18810;53.040;8.850;2022-10-29T14:19:45;33.28;;;15.27;;
32333;SDS011;18810;53.040;8.850;2022-10-29T14:22:15;29.08;;;15.48;;
32333;SDS011;18810;53.040;8.850;2022-10-29T14:24:41;31.90;;;15.70;;
32333;SDS011;18810;53.040;8.850;2022-10-29T14:27:06;32.20;;;15.45;;
32333;SDS011;18810;53.040;8.850;2022-10-29T14:29:32;31.50;;;16.83;;
32333;SDS011;18810;53.040;8.850;2022-10-29T14:32:17;31.35;;;15.75;;
32333;SDS011;18810;53.040;8.850;2022-10-29T14:34:48;30.85;;;15.15;;
32333;SDS011;18810;53.040;8.850;2022-10-29T14:37:35;26.65;;;14.93;;
32333;SDS011;18810;53.040;8.850;2022-10-29T14:40:15;28.30;;;15.55;;
32333;SDS011;18810;53.040;8.850;2022-10-29T14:42:46;34.35;;;16.15;;
32333;SDS011;18810;53.040;8.850;2022-10-29T14:47:46;30.13;;;16.27;;
32333;SDS011;18810;53.040;8.850;2022-10-29T14:50:16;29.55;;;14.93;;
32333;SDS011;18810;53.040;8.850;2022-10-29T14:52:46;30.55;;;16.08;;
32333;SDS011;18810;53.040;8.850;2022-10-29T14:55:20;35.65;;;16.42;;
32333;SDS011;18810;53.040;8.850;2022-10-29T14:57:51;28.60;;;17.45;;
32333;SDS011;18810;53.040;8.850;2022-10-29T15:00:29;34.60;;;16.85;;
32333;SDS011;18810;53.040;8.850;2022-10-29T15:02:57;27.77;;;15.73;;
32333;SDS011;18810;53.040;8.850;2022-10-29T15:07:50;33.95;;;15.60;;
32333;SDS011;18810;53.040;8.850;2022-10-29T15:10:17;26.58;;;15.70;;
32333;SDS011;18810;53.040;8.850;2022-10-29T15:12:48;27.58;;;14.63;;
32333;SDS011;18810;53.040;8.850;2022-10-29T15:20:22;29.77;;;16.92;;
32333;SDS011;18810;53.040;8.850;2022-10-29T15:22:56;31.35;;;17.75;;
32333;SDS011;18810;53.040;8.850;2022-10-29T15:25:23;30.52;;;18.70;;
32333;SDS011;18810;53.040;8.850;2022-10-29T15:27:56;36.28;;;17.90;;
32333;SDS011;18810;53.040;8.850;2022-10-29T15:30:27;37.15;;;17.35;;
32333;SDS011;18810;53.040;8.850;2022-10-29T15:32:59;36.95;;;17.80;;
32333;SDS011;18810;53.040;8.850;2022-10-29T15:35:27;35.33;;;17.02;;
32333;SDS011;18810;53.040;8.850;2022-10-29T15:37:53;38.80;;;20.52;;
32333;SDS011;18810;53.040;8.850;2022-10-29T15:40:21;39.88;;;19.50;;
32333;SDS011;18810;53.040;8.850;2022-10-29T15:42:48;37.08;;;19.50;;
32333;SDS011;18810;53.040;8.850;2022-10-29T15:45:16;39.85;;;18.20;;
32333;SDS011;18810;53.040;8.850;2022-10-29T15:50:42;33.00;;;18.95;;
32333;SDS011;18810;53.040;8.850;2022-10-29T15:53:12;29.20;;;18.00;;
32333;SDS011;18810;53.040;8.850;2022-10-29T15:55:41;33.33;;;18.15;;
32333;SDS011;18810;53.040;8.850;2022-10-29T15:58:11;30.52;;;18.10;;
32333;SDS011;18810;53.040;8.850;2022-10-29T16:00:39;33.47;;;18.42;;
32333;SDS011;18810;53.040;8.850;2022-10-29T16:03:09;35.53;;;18.60;;
32333;SDS011;18810;53.040;8.850;2022-10-29T16:05:41;27.17;;;17.05;;
32333;SDS011;18810;53.040;8.850;2022-10-29T16:08:30;39.00;;;17.98;;
32333;SDS011;18810;53.040;8.850;2022-10-29T16:10:54;31.48;;;17.67;;
32333;SDS011;18810;53.040;8.850;2022-10-29T16:13:22;31.38;;;17.65;;
32333;SDS011;18810;53.040;8.850;2022-10-29T16:15:49;31.13;;;19.13;;
32333;SDS011;18810;53.040;8.850;2022-10-29T16:18:15;32.60;;;18.58;;
32333;SDS011;18810;53.040;8.850;2022-10-29T16:20:41;33.92;;;18.38;;
32333;SDS011;18810;53.040;8.850;2022-10-29T16:23:10;32.25;;;18.20;;
32333;SDS011;18810;53.040;8.850;2022-10-29T16:25:37;31.92;;;17.60;;
32333;SDS011;18810;53.040;8.850;2022-10-29T16:28:03;30.85;;;17.40;;
32333;SDS011;18810;53.040;8.850;2022-10-29T16:30:29;35.58;;;18.63;;
32333;SDS011;18810;53.040;8.850;2022-10-29T16:32:55;32.63;;;17.50;;
32333;SDS011;18810;53.040;8.850;2022-10-29T16:35:22;32.58;;;18.02;;
32333;SDS011;18810;53.040;8.850;2022-10-29T16:37:49;34.75;;;17.73;;
32333;SDS011;18810;53.040;8.850;2022-10-29T16:40:16;36.08;;;17.65;;
32333;SDS011;18810;53.040;8.850;2022-10-29T16:42:43;36.10;;;18.55;;
32333;SDS011;18810;53.040;8.850;2022-10-29T16:45:12;34.20;;;18.70;;
32333;SDS011;18810;53.040;8.850;2022-10-29T16:47:48;36.95;;;18.83;;
32333;SDS011;18810;53.040;8.850;2022-10-29T16:52:54;32.13;;;18.05;;
32333;SDS011;18810;53.040;8.850;2022-10-29T16:55:35;36.38;;;18.75;;